createdAt,value
2023-04-16T00:03:15.358Z,6.13
2023-04-16T00:07:18.673Z,5.40
2023-04-16T00:11:21.389Z,5.13
2023-04-16T00:15:23.207Z,6.50
2023-04-16T00:19:24.905Z,6.90
2023-04-16T00:23:26.554Z,6.05
2023-04-16T00:27:28.199Z,5.70
2023-04-16T00:31:31.715Z,6.72
2023-04-16T00:35:33.480Z,5.97
2023-04-16T00:39:35.359Z,5.70
2023-04-16T00:43:37.124Z,6.50
2023-04-16T00:47:41.365Z,5.75
2023-04-16T00:51:43.051Z,6.68
2023-04-16T00:55:46.270Z,6.50
2023-04-16T00:59:48.048Z,5.40
2023-04-16T01:03:49.986Z,6.40
2023-04-16T01:07:52.198Z,6.63
2023-04-16T01:11:53.873Z,7.13
2023-04-16T01:15:56.036Z,6.65
2023-04-16T01:20:01.151Z,6.40
2023-04-16T01:24:04.773Z,6.50
2023-04-16T01:28:07.391Z,6.18
2023-04-16T01:32:11.758Z,6.53
2023-04-16T01:36:16.205Z,6.70
2023-04-16T01:40:18.988Z,6.25
2023-04-16T01:44:23.296Z,5.72
2023-04-16T01:48:24.985Z,7.55
2023-04-16T01:52:26.809Z,6.18
2023-04-16T01:56:28.475Z,6.18
2023-04-16T02:00:30.604Z,6.40
2023-04-16T02:04:34.190Z,6.03
2023-04-16T02:08:36.356Z,6.67
2023-04-16T02:12:38.059Z,6.10
2023-04-16T02:16:40.105Z,6.50
2023-04-16T02:21:14.270Z,5.95
2023-04-16T02:25:18.063Z,6.93
2023-04-16T02:29:20.637Z,6.27
2023-04-16T02:33:28.954Z,7.15
2023-04-16T02:37:40.866Z,5.93
2023-04-16T02:41:42.657Z,6.25
2023-04-16T02:45:44.923Z,6.20
2023-04-16T02:49:46.694Z,6.75
2023-04-16T02:53:48.580Z,6.65
2023-04-16T02:57:50.365Z,6.68
2023-04-16T03:01:52.212Z,7.18
2023-04-16T03:05:54.039Z,7.40
2023-04-16T03:09:55.700Z,6.70
2023-04-16T03:13:57.402Z,6.95
2023-04-16T03:17:59.589Z,7.00
2023-04-16T03:22:01.452Z,7.63
2023-04-16T03:26:03.372Z,7.15
2023-04-16T03:30:06.644Z,7.13
2023-04-16T03:34:09.697Z,7.13
2023-04-16T03:38:11.480Z,6.93
2023-04-16T03:42:13.967Z,7.60
2023-04-16T03:46:16.425Z,8.10
2023-04-16T03:50:19.886Z,7.20
2023-04-16T03:54:22.939Z,6.32
2023-04-16T03:58:31.832Z,7.65
2023-04-16T04:02:40.782Z,7.13
2023-04-16T04:06:48.463Z,8.07
2023-04-16T04:10:51.356Z,7.38
2023-04-16T04:14:54.738Z,8.48
2023-04-16T04:18:56.555Z,7.72
2023-04-16T04:22:58.809Z,8.57
2023-04-16T04:27:02.234Z,8.07
2023-04-16T04:31:04.388Z,7.22
2023-04-16T04:35:07.065Z,8.20
2023-04-16T04:39:09.232Z,7.10
2023-04-16T04:43:11.696Z,9.23
2023-04-16T04:47:14.433Z,8.55
2023-04-16T04:55:20.646Z,7.88
2023-04-16T04:59:23.803Z,7.68
2023-04-16T05:03:26.426Z,7.93
2023-04-16T05:07:28.186Z,8.87
2023-04-16T05:11:29.974Z,8.60
2023-04-16T05:15:31.637Z,8.30
2023-04-16T05:19:33.573Z,8.05
2023-04-16T05:23:35.451Z,7.57
2023-04-16T05:27:37.355Z,8.10
2023-04-16T05:31:39.005Z,8.52
2023-04-16T05:35:40.618Z,7.85
2023-04-16T05:39:44.248Z,8.70
2023-04-16T05:43:45.892Z,8.07
2023-04-16T05:47:47.973Z,8.50
2023-04-16T05:51:50.821Z,8.50
2023-04-16T05:55:52.795Z,8.15
2023-04-16T05:59:54.468Z,7.53
2023-04-16T06:03:56.246Z,8.55
2023-04-16T06:07:57.980Z,5.45
2023-04-16T06:11:59.922Z,7.25
2023-04-16T06:16:01.623Z,7.68
2023-04-16T06:20:03.590Z,7.88
2023-04-16T06:24:07.659Z,7.80
2023-04-16T06:28:09.324Z,8.68
2023-04-16T06:32:11.320Z,7.95
2023-04-16T06:36:13.123Z,8.13
2023-04-16T06:40:14.879Z,8.05
2023-04-16T06:44:16.584Z,9.38
2023-04-16T06:48:18.236Z,7.63
2023-04-16T06:52:19.964Z,8.43
2023-04-16T06:56:21.697Z,8.63
2023-04-16T07:00:23.345Z,8.15
2023-04-16T07:04:25.659Z,8.27
2023-04-16T07:08:27.530Z,8.07
2023-04-16T07:12:31.634Z,7.90
2023-04-16T07:20:36.297Z,8.57
2023-04-16T07:24:38.151Z,8.27
2023-04-16T07:28:40.140Z,9.70
2023-04-16T07:32:53.336Z,10.73
2023-04-16T07:36:59.024Z,11.77
2023-04-16T07:41:01.139Z,9.23
2023-04-16T07:45:02.909Z,10.50
2023-04-16T07:49:09.785Z,11.77
2023-04-16T07:53:28.130Z,11.05
2023-04-16T07:57:37.761Z,11.48
2023-04-16T08:02:02.351Z,11.07
2023-04-16T08:06:05.866Z,11.10
2023-04-16T08:10:09.034Z,11.60
2023-04-16T08:14:10.701Z,11.37
2023-04-16T08:18:15.776Z,10.98
2023-04-16T08:22:17.606Z,11.50
2023-04-16T08:26:19.377Z,12.18
2023-04-16T08:30:22.151Z,10.35
2023-04-16T08:38:26.559Z,11.00
2023-04-16T08:42:33.829Z,12.23
2023-04-16T08:46:38.130Z,11.85
2023-04-16T08:50:41.165Z,11.90
2023-04-16T08:55:03.200Z,11.10
2023-04-16T08:59:07.295Z,11.65
2023-04-16T09:03:10.402Z,11.23
2023-04-16T09:07:12.729Z,9.35
2023-04-16T09:11:18.284Z,10.83
2023-04-16T09:15:21.104Z,10.60
2023-04-16T09:19:23.636Z,10.27
2023-04-16T09:23:25.554Z,8.82
2023-04-16T09:27:27.577Z,9.73
2023-04-16T09:31:29.493Z,10.43
2023-04-16T09:35:45.824Z,8.68
2023-04-16T09:39:57.807Z,8.60
2023-04-16T09:44:02.105Z,10.25
2023-04-16T09:48:06.140Z,11.45
2023-04-16T09:52:14.809Z,11.07
2023-04-16T09:56:16.848Z,10.07
2023-04-16T10:00:19.103Z,10.03
2023-04-16T10:04:22.483Z,9.98
2023-04-16T10:08:24.325Z,10.60
2023-04-16T10:12:27.345Z,9.55
2023-04-16T10:16:29.734Z,10.38
2023-04-16T10:20:32.006Z,9.38
2023-04-16T10:24:35.110Z,9.75
2023-04-16T10:28:37.190Z,10.55
2023-04-16T10:32:39.640Z,9.20
2023-04-16T10:36:41.530Z,10.35
2023-04-16T10:40:45.066Z,10.05
2023-04-16T10:44:46.755Z,10.20
2023-04-16T10:48:50.815Z,10.20
2023-04-16T10:53:26.677Z,9.27
2023-04-16T10:57:29.393Z,9.85
2023-04-16T11:01:42.287Z,10.27
2023-04-16T11:05:49.619Z,9.88
2023-04-16T11:10:05.966Z,9.73
2023-04-16T11:14:11.035Z,9.80
2023-04-16T11:18:12.715Z,11.27
2023-04-16T11:22:17.540Z,11.10
2023-04-16T11:26:29.644Z,10.75
2023-04-16T11:30:36.135Z,8.00
2023-04-16T11:34:46.223Z,10.05
2023-04-16T11:38:47.957Z,10.38
2023-04-16T11:42:50.844Z,10.57
2023-04-16T11:46:54.485Z,10.73
2023-04-16T11:50:58.085Z,12.05
2023-04-16T11:55:00.567Z,11.55
2023-04-16T11:59:23.236Z,9.60
2023-04-16T12:03:49.879Z,10.80
2023-04-16T12:07:52.732Z,11.45
2023-04-16T12:11:54.461Z,11.20
2023-04-16T12:15:57.177Z,11.02
2023-04-16T12:20:08.148Z,12.10
2023-04-16T12:24:13.655Z,11.70
2023-04-16T12:28:57.294Z,11.68
2023-04-16T12:33:19.106Z,12.77
2023-04-16T12:37:30.816Z,12.05
2023-04-16T12:41:32.569Z,12.32
2023-04-16T12:45:34.481Z,12.43
2023-04-16T12:49:36.713Z,11.15
2023-04-16T12:53:38.445Z,11.85
2023-04-16T12:57:40.706Z,12.60
2023-04-16T13:01:42.438Z,12.43
2023-04-16T13:05:47.093Z,12.48
2023-04-16T13:09:50.964Z,13.00
2023-04-16T13:13:53.795Z,11.77
2023-04-16T13:22:06.538Z,12.30
2023-04-16T13:26:08.203Z,12.68
2023-04-16T13:30:20.719Z,12.30
2023-04-16T13:34:22.449Z,12.75
2023-04-16T13:38:26.393Z,13.50
2023-04-16T13:42:28.583Z,11.00
2023-04-16T13:46:31.195Z,11.93
2023-04-16T13:50:32.986Z,12.40
2023-04-16T13:54:34.695Z,11.38
2023-04-16T13:58:36.420Z,12.60
2023-04-16T14:02:38.206Z,11.32
2023-04-16T14:06:40.632Z,12.13
2023-04-16T14:10:42.538Z,11.95
2023-04-16T14:14:44.352Z,12.52
2023-04-16T14:18:46.194Z,13.32
2023-04-16T14:22:47.974Z,12.73
2023-04-16T14:26:50.532Z,12.05
2023-04-16T14:30:52.146Z,13.97
2023-04-16T14:34:53.828Z,12.45
2023-04-16T14:38:55.732Z,11.73
2023-04-16T14:42:57.479Z,12.18
2023-04-16T14:46:59.263Z,11.75
2023-04-16T14:51:01.290Z,11.70
2023-04-16T14:55:03.252Z,12.63
2023-04-16T14:59:05.053Z,11.30
2023-04-16T15:03:06.914Z,12.98
2023-04-16T15:07:08.890Z,13.10
2023-04-16T15:11:10.658Z,12.32
2023-04-16T15:15:12.423Z,13.13
2023-04-16T15:19:14.336Z,14.27
2023-04-16T15:23:16.351Z,14.07
2023-04-16T15:27:18.489Z,13.35
2023-04-16T15:31:21.155Z,13.17
2023-04-16T15:35:23.107Z,13.60
2023-04-16T15:39:24.814Z,14.75
2023-04-16T15:43:29.068Z,14.23
2023-04-16T15:47:30.913Z,13.50
2023-04-16T15:51:32.613Z,14.65
2023-04-16T15:55:35.109Z,15.82
2023-04-16T15:59:37.109Z,16.25
2023-04-16T16:03:40.665Z,14.60
2023-04-16T16:07:43.598Z,14.50
2023-04-16T16:11:47.134Z,15.88
2023-04-16T16:15:50.824Z,16.02
2023-04-16T16:19:52.686Z,15.52
2023-04-16T16:23:54.436Z,16.30
2023-04-16T16:27:56.315Z,17.23
2023-04-16T16:31:58.207Z,15.40
2023-04-16T16:35:59.993Z,13.50
2023-04-16T16:40:01.917Z,14.52
2023-04-16T16:44:03.636Z,14.73
2023-04-16T16:48:07.726Z,15.30
2023-04-16T16:52:09.543Z,14.27
2023-04-16T16:56:11.275Z,14.32
2023-04-16T17:00:14.588Z,14.38
2023-04-16T17:04:19.362Z,14.20
2023-04-16T17:08:22.040Z,14.43
2023-04-16T17:12:23.868Z,14.05
2023-04-16T17:16:25.806Z,14.23
2023-04-16T17:20:28.070Z,14.17
2023-04-16T17:24:29.773Z,13.23
2023-04-16T17:28:31.663Z,12.63
2023-04-16T17:32:34.740Z,12.30
2023-04-16T17:36:37.014Z,12.07
2023-04-16T17:40:38.758Z,12.73
2023-04-16T17:44:43.449Z,12.65
2023-04-16T17:48:45.339Z,12.93
2023-04-16T17:52:50.049Z,13.23
2023-04-16T17:56:51.860Z,13.52
2023-04-16T18:00:53.634Z,12.30
2023-04-16T18:04:55.630Z,13.07
2023-04-16T18:08:57.558Z,13.53
2023-04-16T18:12:59.512Z,10.30
2023-04-16T18:17:03.698Z,13.35
2023-04-16T18:21:07.823Z,13.88
2023-04-16T18:25:09.490Z,14.23
2023-04-16T18:29:12.470Z,13.27
2023-04-16T18:37:20.184Z,11.95
2023-04-16T18:41:22.058Z,11.23
2023-04-16T18:45:23.926Z,12.35
2023-04-16T18:49:25.808Z,12.07
2023-04-16T18:53:28.656Z,13.38
2023-04-16T19:01:31.909Z,11.35
2023-04-16T19:05:33.808Z,12.32
2023-04-16T19:09:35.885Z,12.45
2023-04-16T19:13:42.079Z,12.23
2023-04-16T19:17:47.107Z,13.35
2023-04-16T19:21:50.407Z,13.32
2023-04-16T19:25:52.147Z,13.00
2023-04-16T19:29:54.609Z,12.25
2023-04-16T19:33:56.367Z,12.40
2023-04-16T19:37:58.732Z,12.30
2023-04-16T19:42:01.882Z,13.80
2023-04-16T19:46:03.795Z,12.45
2023-04-16T19:50:06.148Z,13.85
2023-04-16T19:54:07.836Z,14.38
2023-04-16T19:58:09.845Z,13.73
2023-04-16T20:02:11.659Z,14.00
2023-04-16T20:06:13.687Z,13.23
2023-04-16T20:10:15.560Z,9.63
2023-04-16T20:14:17.472Z,14.50
2023-04-16T20:18:19.649Z,16.10
2023-04-16T20:22:21.361Z,14.33
2023-04-16T20:26:24.851Z,14.00
2023-04-16T20:30:29.538Z,14.90
2023-04-16T20:34:31.237Z,14.07
2023-04-16T20:38:34.420Z,14.70
2023-04-16T20:42:36.437Z,14.98
2023-04-16T20:46:38.943Z,14.98
2023-04-16T20:50:40.779Z,14.27
2023-04-16T20:54:42.668Z,14.65
2023-04-16T20:58:44.512Z,15.20
2023-04-16T21:02:46.520Z,14.68
2023-04-16T21:06:49.310Z,14.93
2023-04-16T21:10:51.425Z,14.75
2023-04-16T21:14:53.285Z,15.77
2023-04-16T21:18:55.932Z,15.68
2023-04-16T21:22:57.667Z,15.43
2023-04-16T21:26:59.418Z,14.80
2023-04-16T21:31:01.317Z,15.63
2023-04-16T21:35:03.994Z,17.10
2023-04-16T21:39:05.895Z,15.85
2023-04-16T21:43:07.528Z,16.20
2023-04-16T21:47:09.175Z,15.60
2023-04-16T21:51:11.351Z,11.83
2023-04-16T21:55:14.416Z,14.70
2023-04-16T21:59:17.040Z,15.23
2023-04-16T22:03:19.058Z,11.77
2023-04-16T22:07:20.988Z,14.53
2023-04-16T22:11:22.965Z,16.15
2023-04-16T22:15:24.922Z,15.43
2023-04-16T22:19:26.714Z,16.08
2023-04-16T22:23:28.384Z,15.60
2023-04-16T22:27:30.084Z,15.20
2023-04-16T22:31:31.863Z,14.55
2023-04-16T22:35:33.739Z,15.13
2023-04-16T22:39:35.730Z,14.98
2023-04-16T22:43:37.985Z,15.53
2023-04-16T22:47:40.006Z,15.60
2023-04-16T22:51:41.669Z,12.23
2023-04-16T22:55:43.515Z,14.20
2023-04-16T22:59:47.032Z,14.25
2023-04-16T23:03:49.051Z,15.25
2023-04-16T23:07:50.751Z,14.63
2023-04-16T23:11:52.381Z,15.52
2023-04-16T23:15:54.025Z,15.07
2023-04-16T23:19:55.804Z,15.30
2023-04-16T23:23:58.951Z,15.60
2023-04-16T23:28:00.627Z,14.38
2023-04-16T23:32:02.402Z,14.70
2023-04-16T23:36:04.365Z,14.73
2023-04-16T23:40:07.198Z,14.88
2023-04-16T23:44:08.933Z,14.25
2023-04-16T23:48:10.594Z,14.13
2023-04-16T23:52:12.315Z,15.30
2023-04-16T23:56:15.519Z,14.23
